首页
METAR-TAF:

METAR-TAF

机场 :

Greenbrier Valley Airport

Lewisburg, 西維吉尼亞州, 美国

纬度: 37-52N, 经度: 080-24W, 海拔: 702米

当前天气观测

该预报发布于10分钟前的01:15 UTC
静风
温度 10°C
湿度 50%
气压 1021 hPa
能見度: 16.1公里
天空无云

METAR: KLWB 240115Z AUTO 00000KT 10SM CLR 10/00 A3015 RMK AO2 T01010003

时间: 21:25 (01:25 UTC)

预报

该预报发布于2小时和2分钟前的23:23 UTC
预报有效从24日的 00点(UTC)到 24日的 24点(UTC)
风速5节,风向西北
能見度: 10公里
天空无云

TAF: KLWB 232323Z 2400/2424 32005KT P6SM SKC

超过4000个机场的气象观测和天气预报(METAR&TAF报告)。

可查询的气象台以黄色和红色小点在地图上表示。

将鼠标移到小点上方,可查看气象台名称。

然后点击查看天气观测和预报。

如需切换地图:点击带黑十字的绿色按钮放大地图;点击带横线的绿色按钮缩小地图;或者点击绿色箭头查看邻近地区的地图。


METAR-TAF: